createdAt,value
2023-02-17T00:01:13.208Z,5.13
2023-02-17T00:03:42.777Z,5.10
2023-02-17T00:06:12.488Z,5.17
2023-02-17T00:08:40.243Z,4.67
2023-02-17T00:11:08.205Z,5.10
2023-02-17T00:13:36.328Z,5.03
2023-02-17T00:16:08.210Z,4.63
2023-02-17T00:18:36.284Z,5.43
2023-02-17T00:21:15.487Z,5.53
2023-02-17T00:23:44.114Z,4.47
2023-02-17T00:26:12.231Z,5.40
2023-02-17T00:28:40.444Z,4.83
2023-02-17T00:31:09.289Z,5.13
2023-02-17T00:33:37.419Z,5.17
2023-02-17T00:36:07.533Z,5.00
2023-02-17T00:38:37.003Z,5.13
2023-02-17T00:41:04.978Z,4.57
2023-02-17T00:43:33.142Z,4.97
2023-02-17T00:46:03.471Z,4.87
2023-02-17T00:48:31.940Z,3.60
2023-02-17T00:50:59.852Z,5.40
2023-02-17T00:53:27.594Z,4.00
2023-02-17T00:55:56.971Z,4.00
2023-02-17T00:58:25.055Z,4.97
2023-02-17T01:00:52.972Z,5.03
2023-02-17T01:03:21.074Z,4.70
2023-02-17T01:05:50.017Z,4.40
2023-02-17T01:08:19.086Z,4.27
2023-02-17T01:10:50.611Z,4.33
2023-02-17T01:13:20.617Z,4.70
2023-02-17T01:15:50.053Z,4.90
2023-02-17T01:18:19.197Z,4.60
2023-02-17T01:20:47.510Z,4.87
2023-02-17T01:23:15.989Z,4.87
2023-02-17T01:25:46.083Z,4.70
2023-02-17T01:28:18.011Z,4.53
2023-02-17T01:30:47.270Z,5.37
2023-02-17T01:33:15.225Z,5.03
2023-02-17T01:35:43.194Z,3.73
2023-02-17T01:38:11.111Z,4.40
2023-02-17T01:40:38.983Z,4.60
2023-02-17T01:43:13.267Z,4.07
2023-02-17T01:45:51.661Z,4.47
2023-02-17T01:48:21.545Z,5.13
2023-02-17T01:50:54.680Z,4.50
2023-02-17T01:53:29.107Z,4.13
2023-02-17T01:55:57.985Z,3.77
2023-02-17T01:58:28.016Z,3.50
2023-02-17T02:01:00.133Z,4.23
2023-02-17T02:03:29.624Z,4.40
2023-02-17T02:05:57.411Z,4.20
2023-02-17T02:08:26.105Z,3.77
2023-02-17T02:10:53.959Z,3.67
2023-02-17T02:13:21.830Z,3.60
2023-02-17T02:15:58.533Z,3.67
2023-02-17T02:18:40.342Z,3.67
2023-02-17T02:21:43.454Z,3.37
2023-02-17T02:24:21.029Z,3.00
2023-02-17T02:27:25.767Z,3.13
2023-02-17T02:30:49.423Z,2.90
2023-02-17T02:33:26.668Z,3.37
2023-02-17T02:36:00.719Z,2.93
2023-02-17T02:38:35.758Z,3.07
2023-02-17T02:41:09.120Z,2.83
2023-02-17T02:43:37.364Z,2.57
2023-02-17T02:46:05.807Z,3.70
2023-02-17T02:48:35.900Z,2.93
2023-02-17T02:51:30.415Z,2.70
2023-02-17T02:54:27.738Z,2.57
2023-02-17T02:57:07.284Z,3.00
2023-02-17T02:59:45.160Z,3.10
2023-02-17T03:02:23.129Z,2.43
2023-02-17T03:04:59.482Z,2.93
2023-02-17T03:07:32.965Z,2.67
2023-02-17T03:10:01.866Z,2.73
2023-02-17T03:12:30.999Z,2.77
2023-02-17T03:15:02.999Z,2.67
2023-02-17T03:17:32.981Z,2.60
2023-02-17T03:20:04.555Z,2.20
2023-02-17T03:22:37.376Z,2.43
2023-02-17T03:25:05.725Z,2.43
2023-02-17T03:27:33.962Z,2.30
2023-02-17T03:30:02.012Z,2.83
2023-02-17T03:32:29.976Z,1.80
2023-02-17T03:34:57.870Z,2.20
2023-02-17T03:37:27.127Z,2.83
2023-02-17T03:39:54.969Z,2.00
2023-02-17T03:42:23.008Z,2.50
2023-02-17T03:44:50.954Z,2.47
2023-02-17T03:47:18.868Z,2.03
2023-02-17T03:49:46.959Z,2.60
2023-02-17T03:52:15.124Z,2.73
2023-02-17T03:54:44.549Z,2.37
2023-02-17T03:57:12.408Z,2.07
2023-02-17T03:59:40.179Z,1.70
2023-02-17T04:02:08.241Z,2.33
2023-02-17T04:04:36.243Z,2.23
2023-02-17T04:07:04.252Z,1.80
2023-02-17T04:09:32.319Z,2.03
2023-02-17T04:12:01.838Z,2.30
2023-02-17T04:14:29.649Z,2.60
2023-02-17T04:16:57.697Z,2.27
2023-02-17T04:19:25.673Z,2.47
2023-02-17T04:21:53.582Z,2.20
2023-02-17T04:24:21.624Z,2.23
2023-02-17T04:26:49.696Z,2.30
2023-02-17T04:29:18.953Z,2.33
2023-02-17T04:31:47.105Z,2.13
2023-02-17T04:34:15.023Z,2.93
2023-02-17T04:36:44.348Z,2.27
2023-02-17T04:39:12.361Z,2.10
2023-02-17T04:41:40.310Z,3.17
2023-02-17T04:44:08.286Z,2.10
2023-02-17T04:46:37.513Z,2.57
2023-02-17T04:49:05.532Z,2.13
2023-02-17T04:51:33.318Z,2.07
2023-02-17T04:54:01.587Z,2.30
2023-02-17T04:56:29.528Z,2.17
2023-02-17T04:58:58.261Z,2.80
2023-02-17T05:01:26.453Z,2.73
2023-02-17T05:03:55.702Z,2.77
2023-02-17T05:06:23.540Z,2.47
2023-02-17T05:08:53.612Z,2.03
2023-02-17T05:11:21.423Z,2.77
2023-02-17T05:13:49.252Z,3.53
2023-02-17T05:16:17.106Z,2.80
2023-02-17T05:18:45.003Z,3.00
2023-02-17T05:21:14.097Z,2.43
2023-02-17T05:23:42.167Z,2.47
2023-02-17T05:26:10.746Z,2.77
2023-02-17T05:28:39.510Z,2.57
2023-02-17T05:31:07.746Z,3.50
2023-02-17T05:33:35.965Z,3.20
2023-02-17T05:36:05.400Z,3.57
2023-02-17T05:38:35.115Z,3.60
2023-02-17T05:41:03.159Z,3.93
2023-02-17T05:43:31.430Z,3.67
2023-02-17T05:46:03.165Z,2.63
2023-02-17T05:48:31.124Z,3.43
2023-02-17T05:50:59.205Z,2.90
2023-02-17T05:53:27.878Z,3.23
2023-02-17T05:55:57.035Z,3.23
2023-02-17T05:58:25.224Z,3.00
2023-02-17T06:00:53.001Z,3.67
2023-02-17T06:03:21.128Z,3.67
2023-02-17T06:05:49.096Z,3.57
2023-02-17T06:08:16.952Z,3.00
2023-02-17T06:10:44.764Z,2.90
2023-02-17T06:13:14.151Z,3.80
2023-02-17T06:15:42.190Z,3.10
2023-02-17T06:18:10.048Z,3.93
2023-02-17T06:20:37.862Z,3.87
2023-02-17T06:23:06.177Z,3.77
2023-02-17T06:25:34.315Z,3.60
2023-02-17T06:28:02.374Z,3.23
2023-02-17T06:30:32.131Z,3.90
2023-02-17T06:33:00.381Z,3.17
2023-02-17T06:35:28.285Z,3.67
2023-02-17T06:37:56.129Z,3.27
2023-02-17T06:40:26.552Z,3.83
2023-02-17T06:42:55.925Z,3.53
2023-02-17T06:45:23.878Z,3.63
2023-02-17T06:47:53.643Z,2.90
2023-02-17T06:50:21.764Z,4.10
2023-02-17T06:52:49.686Z,3.90
2023-02-17T06:55:17.949Z,4.37
2023-02-17T06:57:46.076Z,4.73
2023-02-17T07:00:15.124Z,4.00
2023-02-17T07:02:43.265Z,4.47
2023-02-17T07:05:12.967Z,3.93
2023-02-17T07:07:40.846Z,4.93
2023-02-17T07:10:10.226Z,4.07
2023-02-17T07:12:38.216Z,4.57
2023-02-17T07:15:06.529Z,4.20
2023-02-17T07:17:34.448Z,4.50
2023-02-17T07:20:02.619Z,3.80
2023-02-17T07:22:32.293Z,4.00
2023-02-17T07:25:00.104Z,4.47
2023-02-17T07:27:28.256Z,3.87
2023-02-17T07:29:56.317Z,4.70
2023-02-17T07:32:24.712Z,4.30
2023-02-17T07:34:52.824Z,4.50
2023-02-17T07:37:21.891Z,5.17
2023-02-17T07:39:52.436Z,5.33
2023-02-17T07:42:20.320Z,3.93
2023-02-17T07:44:48.235Z,4.20
2023-02-17T07:47:16.328Z,5.03
2023-02-17T07:49:44.529Z,3.47
2023-02-17T07:52:12.541Z,4.57
2023-02-17T07:54:40.340Z,3.37
2023-02-17T07:57:09.952Z,4.23
2023-02-17T07:59:37.985Z,3.90
2023-02-17T08:02:06.049Z,4.60
2023-02-17T08:04:34.656Z,3.83
2023-02-17T08:07:02.940Z,3.50
2023-02-17T08:09:48.124Z,3.00
2023-02-17T08:12:49.388Z,2.90
2023-02-17T08:15:17.774Z,3.00
2023-02-17T08:17:46.095Z,3.53
2023-02-17T08:20:15.828Z,3.17
2023-02-17T08:22:44.611Z,3.73
2023-02-17T08:25:12.514Z,3.70
2023-02-17T08:27:42.040Z,3.13
2023-02-17T08:30:11.215Z,3.10
2023-02-17T08:32:39.402Z,3.00
2023-02-17T08:35:07.755Z,3.13
2023-02-17T08:37:35.838Z,3.90
2023-02-17T08:40:03.935Z,2.30
2023-02-17T08:42:34.112Z,3.40
2023-02-17T08:45:03.653Z,3.03
2023-02-17T08:47:31.988Z,2.70
2023-02-17T08:49:59.900Z,3.40
2023-02-17T08:52:27.807Z,2.73
2023-02-17T08:54:55.524Z,2.97
2023-02-17T08:57:23.400Z,2.30
2023-02-17T08:59:51.287Z,2.60
2023-02-17T09:02:20.709Z,2.23
2023-02-17T09:04:48.582Z,2.70
2023-02-17T09:07:17.614Z,3.60
2023-02-17T09:09:45.791Z,3.20
2023-02-17T09:12:13.663Z,2.60
2023-02-17T09:14:41.474Z,3.13
2023-02-17T09:17:09.480Z,2.80
2023-02-17T09:19:40.916Z,3.20
2023-02-17T09:22:08.720Z,3.00
2023-02-17T09:24:38.717Z,2.17
2023-02-17T09:27:06.792Z,2.80
2023-02-17T09:29:34.644Z,2.03
2023-02-17T09:32:02.998Z,3.00
2023-02-17T09:34:31.206Z,2.17
2023-02-17T09:37:00.511Z,2.80
2023-02-17T09:39:28.465Z,2.30
2023-02-17T09:41:57.826Z,2.20
2023-02-17T09:44:27.989Z,1.97
2023-02-17T09:47:02.656Z,2.50
2023-02-17T09:49:37.731Z,2.23
2023-02-17T09:52:14.448Z,1.40
2023-02-17T09:54:51.069Z,2.00
2023-02-17T09:57:22.465Z,2.03
2023-02-17T09:59:55.428Z,1.93
2023-02-17T10:02:31.010Z,1.83
2023-02-17T10:05:01.923Z,1.73
2023-02-17T10:07:36.639Z,1.80
2023-02-17T10:10:09.194Z,2.13
2023-02-17T10:12:42.276Z,2.30
2023-02-17T10:15:17.870Z,2.07
2023-02-17T10:17:52.846Z,1.60
2023-02-17T10:20:24.107Z,1.93
2023-02-17T10:22:58.233Z,2.47
2023-02-17T10:25:40.540Z,2.60
2023-02-17T10:28:11.798Z,2.20
2023-02-17T10:30:46.797Z,2.27
2023-02-17T10:33:22.915Z,2.43
2023-02-17T10:35:53.014Z,2.00
2023-02-17T10:38:42.406Z,2.77
2023-02-17T10:41:14.223Z,3.00
2023-02-17T10:43:43.625Z,2.40
2023-02-17T10:46:15.555Z,3.07
2023-02-17T10:48:49.063Z,2.83
2023-02-17T10:51:20.923Z,2.90
2023-02-17T10:53:55.436Z,2.80
2023-02-17T10:56:28.077Z,3.60
2023-02-17T10:59:00.868Z,2.97
2023-02-17T11:01:29.680Z,3.37
2023-02-17T11:04:02.394Z,3.33
2023-02-17T11:06:31.432Z,2.77
2023-02-17T11:09:03.913Z,4.03
2023-02-17T11:11:33.597Z,3.50
2023-02-17T11:14:13.554Z,4.13
2023-02-17T11:16:45.640Z,3.10
2023-02-17T11:19:23.921Z,2.40
2023-02-17T11:21:52.381Z,3.47
2023-02-17T11:24:22.024Z,4.20
2023-02-17T11:26:58.667Z,2.50
2023-02-17T11:29:27.048Z,2.87
2023-02-17T11:31:56.954Z,2.90
2023-02-17T11:34:28.879Z,4.07
2023-02-17T11:37:02.965Z,3.83
2023-02-17T11:39:39.155Z,2.83
2023-02-17T11:42:16.548Z,2.40
2023-02-17T11:44:44.729Z,2.60
2023-02-17T11:47:26.186Z,2.77
2023-02-17T11:50:06.447Z,3.37
2023-02-17T11:53:07.879Z,3.20
2023-02-17T11:55:47.462Z,2.43
2023-02-17T11:58:27.674Z,3.17
2023-02-17T12:01:05.079Z,3.27
2023-02-17T12:03:58.277Z,3.60
2023-02-17T12:06:37.975Z,2.90
2023-02-17T12:09:16.767Z,3.23
2023-02-17T12:11:52.585Z,2.33
2023-02-17T12:14:46.036Z,2.60
2023-02-17T12:17:19.663Z,2.27
2023-02-17T12:19:54.363Z,2.50
2023-02-17T12:22:29.771Z,2.00
2023-02-17T12:25:25.928Z,2.50
2023-02-17T12:28:24.247Z,2.37
2023-02-17T12:31:00.049Z,2.10
2023-02-17T12:33:40.537Z,2.00
2023-02-17T12:36:11.188Z,2.43
2023-02-17T12:38:44.495Z,2.20
2023-02-17T12:41:17.576Z,1.70
2023-02-17T12:43:51.325Z,1.73
2023-02-17T12:46:24.711Z,2.83
2023-02-17T12:48:56.676Z,1.60
2023-02-17T12:51:29.791Z,2.27
2023-02-17T12:54:04.307Z,1.60
2023-02-17T12:57:01.256Z,1.87
2023-02-17T12:59:34.147Z,1.80
2023-02-17T13:02:05.531Z,2.13
2023-02-17T13:04:35.258Z,1.63
2023-02-17T13:07:21.225Z,1.80
2023-02-17T13:09:50.626Z,1.63
2023-02-17T13:12:35.172Z,1.50
2023-02-17T13:15:06.891Z,1.40
2023-02-17T13:17:38.973Z,1.20
2023-02-17T13:20:23.799Z,0.83
2023-02-17T13:22:51.947Z,1.30
2023-02-17T13:25:31.076Z,1.33
2023-02-17T13:27:59.928Z,1.30
2023-02-17T13:30:39.677Z,1.03
2023-02-17T13:33:15.573Z,1.10
2023-02-17T13:35:43.477Z,1.67
2023-02-17T13:38:11.528Z,1.20
2023-02-17T13:40:40.772Z,1.33
2023-02-17T13:43:17.095Z,1.73
2023-02-17T13:45:50.235Z,1.57
2023-02-17T13:48:26.162Z,1.30
2023-02-17T13:50:55.794Z,1.30
2023-02-17T13:53:30.604Z,1.27
2023-02-17T13:56:01.148Z,1.60
2023-02-17T13:58:31.279Z,1.27
2023-02-17T14:01:02.502Z,1.23
2023-02-17T14:03:34.896Z,1.57
2023-02-17T14:06:04.665Z,1.80
2023-02-17T14:08:37.766Z,1.33
2023-02-17T14:11:09.977Z,1.37
2023-02-17T14:13:39.951Z,1.67
2023-02-17T14:16:26.809Z,1.27
2023-02-17T14:19:03.139Z,1.70
2023-02-17T14:21:31.511Z,1.03
2023-02-17T14:24:00.645Z,1.77
2023-02-17T14:26:32.865Z,1.20
2023-02-17T14:29:01.863Z,1.30
2023-02-17T14:31:31.166Z,1.03
2023-02-17T14:34:02.353Z,1.03
2023-02-17T14:36:34.351Z,1.10
2023-02-17T14:39:04.124Z,0.70
2023-02-17T14:41:32.086Z,0.73
2023-02-17T14:44:00.602Z,1.37
2023-02-17T14:46:30.177Z,1.13
2023-02-17T14:48:58.048Z,0.90
2023-02-17T14:51:32.226Z,0.90
2023-02-17T14:54:02.256Z,0.90
2023-02-17T14:56:35.467Z,0.70
2023-02-17T14:59:03.229Z,0.80
2023-02-17T15:01:32.747Z,0.87
2023-02-17T15:04:02.738Z,0.40
2023-02-17T15:06:37.369Z,0.43
2023-02-17T15:09:05.868Z,0.73
2023-02-17T15:11:37.237Z,0.70
2023-02-17T15:14:05.705Z,1.30
2023-02-17T15:16:35.224Z,0.27
2023-02-17T15:19:03.098Z,0.20
2023-02-17T15:21:32.773Z,0.40
2023-02-17T15:24:02.431Z,0.40
2023-02-17T15:26:31.568Z,0.30
2023-02-17T15:28:59.886Z,0.37
2023-02-17T15:31:31.521Z,1.13
2023-02-17T15:34:02.208Z,1.03
2023-02-17T15:36:31.743Z,0.97
2023-02-17T15:38:59.561Z,0.83
2023-02-17T15:41:31.236Z,0.90
2023-02-17T15:43:59.578Z,0.80
2023-02-17T15:46:32.019Z,0.77
2023-02-17T15:49:01.481Z,1.00
2023-02-17T15:51:29.386Z,0.67
2023-02-17T15:53:57.186Z,0.53
2023-02-17T15:56:27.616Z,0.40
2023-02-17T15:58:55.737Z,0.50
2023-02-17T16:01:29.207Z,0.70
2023-02-17T16:03:57.967Z,0.77
2023-02-17T16:06:27.877Z,0.50
2023-02-17T16:08:58.600Z,0.67
2023-02-17T16:11:28.649Z,0.30
2023-02-17T16:13:56.553Z,0.63
2023-02-17T16:16:28.469Z,0.60
2023-02-17T16:18:56.988Z,0.83
2023-02-17T16:21:24.862Z,0.40
2023-02-17T16:23:58.980Z,0.50
2023-02-17T16:26:31.038Z,0.97
2023-02-17T16:29:01.027Z,0.97
2023-02-17T16:31:32.256Z,0.63
2023-02-17T16:34:00.519Z,0.80
2023-02-17T16:36:33.191Z,0.47
2023-02-17T16:39:04.994Z,0.73
2023-02-17T16:41:32.813Z,0.57
2023-02-17T16:44:00.827Z,0.80
2023-02-17T16:46:31.973Z,0.63
2023-02-17T16:49:01.302Z,0.70
2023-02-17T16:51:29.338Z,1.30
2023-02-17T16:53:57.485Z,1.00
2023-02-17T16:56:35.437Z,0.70
2023-02-17T16:59:03.201Z,1.73
2023-02-17T17:01:32.354Z,0.80
2023-02-17T17:04:00.447Z,1.13
2023-02-17T17:06:30.618Z,0.50
2023-02-17T17:08:58.565Z,1.07
2023-02-17T17:11:29.192Z,0.60
2023-02-17T17:13:57.027Z,0.50
2023-02-17T17:16:28.740Z,0.30
2023-02-17T17:18:56.518Z,0.60
2023-02-17T17:21:24.373Z,0.50
2023-02-17T17:23:52.134Z,1.07
2023-02-17T17:26:24.877Z,0.30
2023-02-17T17:28:54.693Z,0.40
2023-02-17T17:31:23.231Z,0.50
2023-02-17T17:33:52.475Z,0.87
2023-02-17T17:36:25.991Z,0.83
2023-02-17T17:38:55.491Z,0.47
2023-02-17T17:41:24.722Z,0.80
2023-02-17T17:43:55.409Z,0.40
2023-02-17T17:46:24.682Z,0.40
2023-02-17T17:48:53.153Z,0.93
2023-02-17T17:51:22.425Z,0.50
2023-02-17T17:53:50.800Z,0.50
2023-02-17T17:56:20.584Z,0.77
2023-02-17T17:58:48.875Z,0.80
2023-02-17T18:01:19.540Z,0.97
2023-02-17T18:03:47.933Z,1.00
2023-02-17T18:06:18.822Z,0.43
2023-02-17T18:08:49.102Z,0.80
2023-02-17T18:11:18.986Z,0.70
2023-02-17T18:13:49.232Z,0.60
2023-02-17T18:16:20.405Z,0.70
2023-02-17T18:18:49.194Z,1.03
2023-02-17T18:21:17.112Z,1.20
2023-02-17T18:23:47.998Z,0.60
2023-02-17T18:26:16.479Z,1.47
2023-02-17T18:28:44.516Z,0.50
2023-02-17T18:31:15.030Z,0.97
2023-02-17T18:33:44.606Z,0.73
2023-02-17T18:36:15.206Z,1.10
2023-02-17T18:38:43.317Z,0.90
2023-02-17T18:41:17.794Z,0.83
2023-02-17T18:43:45.601Z,1.03
2023-02-17T18:46:13.423Z,0.67
2023-02-17T18:48:41.342Z,0.50
2023-02-17T18:51:12.990Z,0.43
2023-02-17T18:53:41.160Z,0.63
2023-02-17T18:56:13.047Z,0.90
2023-02-17T18:58:41.302Z,0.73
2023-02-17T19:01:16.200Z,1.53
2023-02-17T19:03:44.084Z,0.73
2023-02-17T19:06:16.183Z,0.60
2023-02-17T19:08:44.130Z,1.40
2023-02-17T19:11:12.211Z,0.73
2023-02-17T19:13:41.274Z,0.80
2023-02-17T19:16:11.942Z,0.40
2023-02-17T19:18:40.904Z,0.60
2023-02-17T19:21:09.321Z,0.77
2023-02-17T19:23:39.088Z,0.57
2023-02-17T19:26:07.782Z,0.70
2023-02-17T19:28:37.122Z,1.13
2023-02-17T19:31:07.143Z,0.73
2023-02-17T19:33:35.514Z,0.93
2023-02-17T19:36:07.926Z,0.60
2023-02-17T19:38:35.926Z,0.77
2023-02-17T19:41:06.815Z,1.10
2023-02-17T19:43:34.849Z,0.93
2023-02-17T19:46:02.990Z,1.07
2023-02-17T19:48:30.805Z,1.53
2023-02-17T19:51:00.901Z,0.80
2023-02-17T19:53:29.040Z,1.07
2023-02-17T19:55:56.775Z,0.53
2023-02-17T19:58:26.019Z,1.17
2023-02-17T20:00:53.780Z,0.87
2023-02-17T20:03:21.730Z,1.27
2023-02-17T20:05:49.638Z,0.27
2023-02-17T20:08:17.451Z,0.67
2023-02-17T20:10:45.289Z,1.73
2023-02-17T20:13:13.021Z,0.50
2023-02-17T20:15:42.190Z,1.20
2023-02-17T20:18:10.139Z,1.00
2023-02-17T20:20:38.223Z,0.80
2023-02-17T20:23:07.130Z,1.20
2023-02-17T20:25:34.879Z,1.20
2023-02-17T20:28:02.610Z,0.97
2023-02-17T20:30:30.443Z,0.93
2023-02-17T20:33:00.373Z,0.83
2023-02-17T20:35:28.209Z,0.90
2023-02-17T20:37:55.944Z,0.20
2023-02-17T20:40:23.792Z,0.80
2023-02-17T20:42:51.487Z,0.80
2023-02-17T20:45:19.332Z,0.83
2023-02-17T20:47:47.085Z,0.40
2023-02-17T20:50:17.374Z,0.43
2023-02-17T20:52:45.514Z,0.83
2023-02-17T20:55:14.767Z,0.63
2023-02-17T20:57:42.966Z,0.30
2023-02-17T21:00:16.765Z,0.63
2023-02-17T21:02:44.574Z,0.30
2023-02-17T21:05:12.756Z,0.83
2023-02-17T21:07:42.227Z,0.93
2023-02-17T21:10:16.138Z,1.13
2023-02-17T21:12:44.165Z,0.60
2023-02-17T21:15:12.717Z,0.53
2023-02-17T21:17:40.821Z,0.63
2023-02-17T21:20:10.861Z,0.70
2023-02-17T21:22:38.892Z,0.90
2023-02-17T21:25:09.506Z,1.67
2023-02-17T21:27:37.456Z,1.50
2023-02-17T21:30:06.002Z,0.83
2023-02-17T21:32:33.736Z,0.83
2023-02-17T21:35:01.706Z,0.87
2023-02-17T21:37:29.539Z,0.87
2023-02-17T21:39:57.560Z,0.70
2023-02-17T21:42:45.908Z,0.57
2023-02-17T21:45:14.059Z,0.47
2023-02-17T21:47:41.800Z,0.50
2023-02-17T21:50:10.254Z,0.43
2023-02-17T21:52:38.056Z,1.27
2023-02-17T21:55:06.325Z,0.60
2023-02-17T21:57:35.425Z,0.50
2023-02-17T22:00:03.382Z,0.50
2023-02-17T22:02:31.125Z,1.13
2023-02-17T22:04:58.938Z,0.20
2023-02-17T22:07:26.801Z,0.27
2023-02-17T22:09:54.517Z,0.73
2023-02-17T22:12:22.266Z,0.60
2023-02-17T22:14:51.369Z,0.50
2023-02-17T22:17:19.408Z,0.83
2023-02-17T22:19:47.247Z,0.50
2023-02-17T22:22:15.087Z,0.63
2023-02-17T22:24:43.037Z,0.37
2023-02-17T22:27:10.812Z,0.87
2023-02-17T22:29:38.828Z,0.83
2023-02-17T22:32:08.190Z,0.40
2023-02-17T22:34:36.111Z,0.33
2023-02-17T22:37:03.825Z,0.37
2023-02-17T22:39:31.833Z,1.33
2023-02-17T22:41:59.766Z,0.50
2023-02-17T22:44:27.501Z,0.90
2023-02-17T22:46:55.264Z,0.63
2023-02-17T22:49:24.322Z,0.53
2023-02-17T22:51:52.060Z,0.83
2023-02-17T22:54:19.823Z,0.40
2023-02-17T22:56:47.570Z,0.40
2023-02-17T22:59:15.315Z,1.00
2023-02-17T23:01:43.126Z,0.50
2023-02-17T23:04:13.534Z,0.40
2023-02-17T23:06:43.157Z,0.30
2023-02-17T23:09:16.494Z,1.27
2023-02-17T23:11:54.839Z,0.67
2023-02-17T23:14:25.805Z,0.20
2023-02-17T23:16:55.907Z,0.37
2023-02-17T23:19:24.590Z,0.53
2023-02-17T23:21:55.637Z,0.70
2023-02-17T23:24:24.712Z,0.53
2023-02-17T23:26:53.646Z,0.40
2023-02-17T23:29:21.543Z,0.50
2023-02-17T23:31:49.735Z,0.80
2023-02-17T23:34:17.792Z,0.87
2023-02-17T23:36:47.583Z,1.20
2023-02-17T23:39:17.559Z,0.30
2023-02-17T23:41:45.522Z,0.73
2023-02-17T23:44:14.936Z,1.43
2023-02-17T23:46:44.999Z,0.30
2023-02-17T23:49:14.868Z,0.53
2023-02-17T23:51:43.566Z,0.60
2023-02-17T23:54:11.401Z,0.50
2023-02-17T23:56:40.776Z,0.47
2023-02-17T23:59:08.623Z,0.30
